Arrantzale — EBVT — position and weather

sailwx.info

Track history (hours):
 
Tides and Currents Weather Stations Pressure Air Temp Water Temp Dewpoint Dewpoint Depression Visibility Wind Speed Wind Dir Waves Ship Positions

Arrantzale

Last reported at 2016-Aug-24 09:24 UTC. Time now 2016-Aug-26 08:30 UTC.
Position N 44°06' W 002°30'.

Length 32 m.

Type: Fishing. MMSI: 224065290.

Date/timePositionNaut miles runAvg speedWind from/ knotsBaromVisibWave heightAir tempDewpointWater temp
2016-Aug-24 09:24N 44°06' W 002°30'1210.6
2016-Aug-24 08:15N 44°05' W 002°13'1810.5
2016-Aug-24 06:33N 44°04' W 001°48'8 3.9
2016-Aug-24 04:23N 44°05' W 001°37'1 1.1
2016-Aug-24 03:34N 44°04' W 001°38'4 0.9
2016-Aug-23 23:34N 44°01' W 001°39'3 2.6
2016-Aug-23 22:34N 44°03' W 001°38'3 2.8
2016-Aug-23 21:33N 44°05' W 001°41'10 9.7
2016-Aug-23 20:33N 43°56' W 001°39'9 9.4
2016-Aug-23 19:33N 43°46' W 001°40'9 8.9
2016-Aug-23 18:33N 43°38' W 001°43'9 8.9
2016-Aug-23 17:30N 43°29' W 001°46'6 5.7
2016-Aug-23 16:32N 43°23' W 001°48'0 0.0
2016-Aug-23 15:30N 43°23' W 001°48'0 0.0
2016-Aug-23 14:32N 43°23' W 001°48'0 0.0
2016-Aug-23 13:29N 43°23' W 001°48'0 0.0
2016-Aug-23 12:32N 43°23' W 001°48'0 0.0
2016-Aug-23 11:05N 43°23' W 001°48'0 0.0
2016-Aug-23 10:33N 43°23' W 001°48'0 0.0
2016-Aug-23 09:34N 43°23' W 001°48'0 0.0
2016-Aug-23 08:34N 43°23' W 001°48'0 0.0
2016-Aug-23 07:34N 43°23' W 001°48'0 0.0
2016-Aug-23 06:34N 43°23' W 001°48'0 0.0
2016-Aug-23 05:34N 43°23' W 001°48'0 0.0
2016-Aug-23 04:34N 43°23' W 001°48'0 0.0
2016-Aug-23 03:33N 43°23' W 001°48'0 0.0
2016-Aug-23 02:33N 43°23' W 001°48'0 0.0
2016-Aug-23 01:33N 43°23' W 001°48'0 0.0
2016-Aug-23 00:32N 43°23' W 001°48'0 0.0
2016-Aug-22 22:28N 43°23' W 001°48'0 0.0
2016-Aug-22 21:19N 43°23' W 001°48'0 0.0
2016-Aug-22 20:31N 43°23' W 001°48'0 0.0
2016-Aug-22 19:34N 43°23' W 001°48'0 0.0
2016-Aug-22 18:34N 43°23' W 001°48'0 0.0
2016-Aug-22 17:33N 43°23' W 001°48'0 0.0
2016-Aug-22 16:32N 43°23' W 001°48'0 0.0
2016-Aug-22 15:32N 43°23' W 001°48'0 0.0
2016-Aug-22 14:23N 43°23' W 001°48'0 0.0
2016-Aug-22 11:29N 43°23' W 001°48'0 0.0
2016-Aug-22 09:27N 43°23' W 001°48'0 0.0
2016-Aug-22 08:33N 43°23' W 001°48'0 0.0
2016-Aug-22 07:33N 43°23' W 001°48'0 0.0
2016-Aug-22 06:33N 43°23' W 001°48'0 0.0
2016-Aug-22 05:34N 43°23' W 001°48'0 0.0
2016-Aug-22 04:33N 43°23' W 001°48'0 0.4
2016-Aug-22 03:34N 43°23' W 001°47'0 0.3
2016-Aug-22 02:33N 43°23' W 001°47'0 0.1
2016-Aug-22 01:33N 43°23' W 001°48'0 0.0
2016-Aug-21 23:24N 43°23' W 001°48'0 0.0
2016-Aug-21 22:16N 43°23' W 001°48'0 0.0
2016-Aug-21 21:33N 43°23' W 001°48'0 0.0
2016-Aug-21 20:33N 43°23' W 001°48'0 0.0
2016-Aug-21 19:31N 43°23' W 001°48'0 0.0
2016-Aug-21 18:33N 43°23' W 001°48'0 0.0
2016-Aug-21 17:33N 43°23' W 001°48'0 0.0
2016-Aug-21 16:33N 43°23' W 001°48'0 0.0
2016-Aug-21 15:32N 43°23' W 001°48'0 0.0
2016-Aug-21 14:33N 43°23' W 001°48'0 0.0
2016-Aug-21 13:30N 43°23' W 001°48'0 0.0
2016-Aug-21 10:20N 43°23' W 001°48'0 0.0
2016-Aug-21 09:26N 43°23' W 001°48'0 0.0
2016-Aug-21 08:33N 43°23' W 001°48'0 0.0
2016-Aug-21 07:33N 43°23' W 001°48'0 0.1
2016-Aug-21 06:33N 43°23' W 001°47'0 0.0
2016-Aug-21 05:27N 43°23' W 001°47'  
2016-Aug-16 09:25N 45°17' W 003°34'109 2.4
2016-Aug-14 12:30N 43°53' W 005°09'  
Track history (hours):
 
Tides and Currents Weather Stations Pressure Air Temp Water Temp Dewpoint Dewpoint Depression Visibility Wind Speed Wind Dir Waves Ship Positions

Arrantzale

Last reported at 2016-Aug-24 09:24 UTC. Time now 2016-Aug-26 08:30 UTC.
Position N 44°06' W 002°30'.

Length 32 m.

Type: Fishing. MMSI: 224065290.

Date/timePositionNaut miles runAvg speedWind from/ knotsBaromVisibWave heightAir tempDewpointWater temp
2016-Aug-24 09:24N 44°06' W 002°30'1210.6
2016-Aug-24 08:15N 44°05' W 002°13'1810.5
2016-Aug-24 06:33N 44°04' W 001°48'8 3.9
2016-Aug-24 04:23N 44°05' W 001°37'1 1.1
2016-Aug-24 03:34N 44°04' W 001°38'4 0.9
2016-Aug-23 23:34N 44°01' W 001°39'3 2.6
2016-Aug-23 22:34N 44°03' W 001°38'3 2.8
2016-Aug-23 21:33N 44°05' W 001°41'10 9.7
2016-Aug-23 20:33N 43°56' W 001°39'9 9.4
2016-Aug-23 19:33N 43°46' W 001°40'9 8.9
2016-Aug-23 18:33N 43°38' W 001°43'9 8.9
2016-Aug-23 17:30N 43°29' W 001°46'6 5.7
2016-Aug-23 16:32N 43°23' W 001°48'0 0.0
2016-Aug-23 15:30N 43°23' W 001°48'0 0.0
2016-Aug-23 14:32N 43°23' W 001°48'0 0.0
2016-Aug-23 13:29N 43°23' W 001°48'0 0.0
2016-Aug-23 12:32N 43°23' W 001°48'0 0.0
2016-Aug-23 11:05N 43°23' W 001°48'0 0.0
2016-Aug-23 10:33N 43°23' W 001°48'0 0.0
2016-Aug-23 09:34N 43°23' W 001°48'0 0.0
2016-Aug-23 08:34N 43°23' W 001°48'0 0.0
2016-Aug-23 07:34N 43°23' W 001°48'0 0.0
2016-Aug-23 06:34N 43°23' W 001°48'0 0.0
2016-Aug-23 05:34N 43°23' W 001°48'0 0.0
2016-Aug-23 04:34N 43°23' W 001°48'0 0.0
2016-Aug-23 03:33N 43°23' W 001°48'0 0.0
2016-Aug-23 02:33N 43°23' W 001°48'0 0.0
2016-Aug-23 01:33N 43°23' W 001°48'0 0.0
2016-Aug-23 00:32N 43°23' W 001°48'0 0.0
2016-Aug-22 22:28N 43°23' W 001°48'0 0.0
2016-Aug-22 21:19N 43°23' W 001°48'0 0.0
2016-Aug-22 20:31N 43°23' W 001°48'0 0.0
2016-Aug-22 19:34N 43°23' W 001°48'0 0.0
2016-Aug-22 18:34N 43°23' W 001°48'0 0.0
2016-Aug-22 17:33N 43°23' W 001°48'0 0.0
2016-Aug-22 16:32N 43°23' W 001°48'0 0.0
2016-Aug-22 15:32N 43°23' W 001°48'0 0.0
2016-Aug-22 14:23N 43°23' W 001°48'0 0.0
2016-Aug-22 11:29N 43°23' W 001°48'0 0.0
2016-Aug-22 09:27N 43°23' W 001°48'0 0.0
2016-Aug-22 08:33N 43°23' W 001°48'0 0.0
2016-Aug-22 07:33N 43°23' W 001°48'0 0.0
2016-Aug-22 06:33N 43°23' W 001°48'0 0.0
2016-Aug-22 05:34N 43°23' W 001°48'0 0.0
2016-Aug-22 04:33N 43°23' W 001°48'0 0.4
2016-Aug-22 03:34N 43°23' W 001°47'0 0.3
2016-Aug-22 02:33N 43°23' W 001°47'0 0.1
2016-Aug-22 01:33N 43°23' W 001°48'0 0.0
2016-Aug-21 23:24N 43°23' W 001°48'0 0.0
2016-Aug-21 22:16N 43°23' W 001°48'0 0.0
2016-Aug-21 21:33N 43°23' W 001°48'0 0.0
2016-Aug-21 20:33N 43°23' W 001°48'0 0.0
2016-Aug-21 19:31N 43°23' W 001°48'0 0.0
2016-Aug-21 18:33N 43°23' W 001°48'0 0.0
2016-Aug-21 17:33N 43°23' W 001°48'0 0.0
2016-Aug-21 16:33N 43°23' W 001°48'0 0.0
2016-Aug-21 15:32N 43°23' W 001°48'0 0.0
2016-Aug-21 14:33N 43°23' W 001°48'0 0.0
2016-Aug-21 13:30N 43°23' W 001°48'0 0.0
2016-Aug-21 10:20N 43°23' W 001°48'0 0.0
2016-Aug-21 09:26N 43°23' W 001°48'0 0.0
2016-Aug-21 08:33N 43°23' W 001°48'0 0.0
2016-Aug-21 07:33N 43°23' W 001°48'0 0.1
2016-Aug-21 06:33N 43°23' W 001°47'0 0.0
2016-Aug-21 05:27N 43°23' W 001°47'  
2016-Aug-16 09:25N 45°17' W 003°34'109 2.4
2016-Aug-14 12:30N 43°53' W 005°09'  

Dump ship's entire track history